Portada
METAR-TAF:

METAR-TAF

Aeroports :

Gorgan, Iran

latitud: 36-49N, longitud: 054-28E, altitud: 155 m

Observació

L'informe es va fer fa 35 minuts, a les 04:00 UTC
Vent 4 kt del Est
Temperatura 9°C
Humitat 93%
Pressió 1026 hPa
Visibilitat: 8000 m
Núvols disperses a una alçada de 2000 ft
Cel ennuvolat a una alçada de 8000 ft

METAR: OING 210400Z 10004KT 8000 SCT020 BKN080 09/08 Q1026 REDZ

Hora: 08:05 (04:35 UTC)


TAF: manca

Observacions i pronòstics meteorològics de més de 4000 aeroports (METAR i TAF).

Les estacions disponibles són els punts grocs i vermells al mapa.

Posi el ratolí al punt desitjat per veure el nom de l'estació.

Feu clic per veure les observacions i els pronòstics meteorològics.

Per canviar el mapa: feu clic els botons verds amb una creu de color negre per apropar; al botó verd amb un guió per allunyar la imatge; o en les fletxes verdes per a mapes adjacents.


METAR-TAF: